Susquehanna — WDD9976 — position and weather

sailwx.info

Track history (hours):
 
Tides and Currents Weather Stations Pressure Air Temp Water Temp Dewpoint Dewpoint Depression Visibility Wind Speed Wind Dir Waves Ship Positions

Susquehanna

Owner: Vane Line Bunkering, Inc., Baltimore, MD. More information available from US FCC via Universal Licensing System and Coast Guard Vessel Documentation Center.

Last reported at 2015-Mar-26 20:13 UTC. Time now 2015-Mar-27 03:42 UTC.
Position N 40°30' W 074°15'.

Length 28 m; draft 4.2 m.

Type: Tug. MMSI: 367318750.

Date/timePositionNaut miles runAvg speedWind from/ knotsBaromVisibWave heightAir tempDewpointWater temp
2015-Mar-26 20:13N 40°30' W 074°15'10 2.2
2015-Mar-26 15:32N 40°39' W 074°08'7 7.5
2015-Mar-26 14:33N 40°42' W 073°60'11 7.6
2015-Mar-26 13:06N 40°48' W 073°47'5 8.8
2015-Mar-26 12:29N 40°53' W 073°44'10 8.2
2015-Mar-26 11:16N 40°57' W 073°32'6 8.0
2015-Mar-26 10:33N 41°00' W 073°25'8 8.3
2015-Mar-26 09:33N 41°03' W 073°15'9 8.6
2015-Mar-26 08:33N 41°06' W 073°04'9 8.8
2015-Mar-26 07:33N 41°12' W 072°55'6 5.9
2015-Mar-26 06:30N 41°18' W 072°54'0 0.0
2015-Mar-26 00:08N 41°18' W 072°54'0 0.0
2015-Mar-25 20:33N 41°18' W 072°55'7 7.1
2015-Mar-25 19:33N 41°11' W 072°57'8 7.6
2015-Mar-25 18:33N 41°06' W 073°05'7 7.2
2015-Mar-25 17:33N 41°03' W 073°13'7 7.5
2015-Mar-25 16:33N 41°01' W 073°23'8 8.0
2015-Mar-25 15:33N 40°57' W 073°32'8 8.4
2015-Mar-25 14:33N 40°53' W 073°42'8 7.8
2015-Mar-25 13:33N 40°48' W 073°50'7 7.3
2015-Mar-25 12:33N 40°45' W 073°58'7 6.7
2015-Mar-25 11:33N 40°39' W 074°03'1 1.3
2015-Mar-25 10:33N 40°39' W 074°05'1 0.8
2015-Mar-25 09:25N 40°40' W 074°05'0 0.0
2015-Mar-25 08:08N 40°40' W 074°05'0 0.0
2015-Mar-25 05:28N 40°40' W 074°05'0 0.0
2015-Mar-25 02:24N 40°40' W 074°05'0 0.0
2015-Mar-25 01:30N 40°40' W 074°05'0 0.0
2015-Mar-25 00:25N 40°40' W 074°05'0 0.0
2015-Mar-24 23:32N 40°40' W 074°05'0 0.0
2015-Mar-24 22:32N 40°40' W 074°05'0 0.0
2015-Mar-24 21:33N 40°40' W 074°05'0 0.0
2015-Mar-24 20:33N 40°40' W 074°05'0 0.0
2015-Mar-24 18:29N 40°40' W 074°05'0 0.0
2015-Mar-24 17:29N 40°40' W 074°05'0 0.0
2015-Mar-24 16:24N 40°40' W 074°05'0 0.0
2015-Mar-24 15:31N 40°40' W 074°05'4 3.9
2015-Mar-24 14:33N 40°40' W 074°00'0 0.0
2015-Mar-24 13:28N 40°40' W 074°00'3 2.9
2015-Mar-24 12:33N 40°39' W 074°03'0 0.5
2015-Mar-24 11:33N 40°39' W 074°03'1 0.9
2015-Mar-24 10:28N 40°40' W 074°02'0 0.0
2015-Mar-24 09:31N 40°40' W 074°02'0 0.0
2015-Mar-24 08:26N 40°40' W 074°02'0 0.0
2015-Mar-24 07:32N 40°40' W 074°02'0 0.0
2015-Mar-24 06:33N 40°40' W 074°02'0 0.0
2015-Mar-24 05:28N 40°40' W 074°02'0 0.1
2015-Mar-24 04:28N 40°40' W 074°02'0 0.0
2015-Mar-24 03:29N 40°40' W 074°02'0 0.0
2015-Mar-24 02:30N 40°40' W 074°02'0 0.0
2015-Mar-24 01:30N 40°40' W 074°02'0 0.0
2015-Mar-24 00:31N 40°40' W 074°02'0 0.0
2015-Mar-23 23:32N 40°40' W 074°02'0 0.0
2015-Mar-23 22:32N 40°40' W 074°02'0 0.0
2015-Mar-23 21:33N 40°40' W 074°02'0 0.0
2015-Mar-23 20:28N 40°40' W 074°02'0 0.0
2015-Mar-23 19:31N 40°40' W 074°02'0 0.0
2015-Mar-23 18:29N 40°40' W 074°02'0 0.0
2015-Mar-23 17:29N 40°40' W 074°02'0 0.0
2015-Mar-23 16:30N 40°40' W 074°02'0 0.0
2015-Mar-23 15:28N 40°40' W 074°02'0 0.0
2015-Mar-23 14:31N 40°40' W 074°02'0 0.0
2015-Mar-23 13:32N 40°40' W 074°02'0 0.0
2015-Mar-23 12:33N 40°40' W 074°02'0 0.0
2015-Mar-23 11:33N 40°40' W 074°02'0 0.0
2015-Mar-23 10:28N 40°40' W 074°02'0 0.0
2015-Mar-23 09:31N 40°40' W 074°02'0 0.0
2015-Mar-23 08:29N 40°40' W 074°02'0 0.0
2015-Mar-23 07:30N 40°40' W 074°02'0 0.0
2015-Mar-23 06:30N 40°40' W 074°02'0 0.0
2015-Mar-23 05:31N 40°40' W 074°02'0 0.0
2015-Mar-23 04:32N 40°40' W 074°02'0 0.0
2015-Mar-23 03:32N 40°40' W 074°02'0 0.0
2015-Mar-23 02:33N 40°40' W 074°02'0 0.0
2015-Mar-23 01:28N 40°40' W 074°02'0 0.0
2015-Mar-23 00:25N 40°40' W 074°02'0 0.0
2015-Mar-22 23:29N 40°40' W 074°02'0 0.0
2015-Mar-22 22:30N 40°40' W 074°02'0 0.0
2015-Mar-22 21:30N 40°40' W 074°02'0 0.0
2015-Mar-22 20:31N 40°40' W 074°02'0 0.0
2015-Mar-22 19:31N 40°40' W 074°02'0 0.0
2015-Mar-22 18:32N 40°40' W 074°02'0 0.0
2015-Mar-22 17:33N 40°40' W 074°02'0 0.0
2015-Mar-22 16:33N 40°40' W 074°02'0 0.0
2015-Mar-22 15:22N 40°40' W 074°02'0 0.0
2015-Mar-22 14:33N 40°40' W 074°02'0 0.0
2015-Mar-22 13:33N 40°40' W 074°02'3 2.6
2015-Mar-22 12:33N 40°42' W 074°00'6 5.6
2015-Mar-22 11:33N 40°47' W 073°56'28 7.1
2015-Mar-22 07:33N 41°01' W 073°24'9 9.1
2015-Mar-22 06:33N 41°04' W 073°12'9 9.5
2015-Mar-22 05:33N 41°08' W 073°01'7 7.3
2015-Mar-22 04:33N 41°13' W 072°55'4 0.4
2015-Mar-21 17:19N 41°18' W 072°55'6 7.7
2015-Mar-21 16:33N 41°12' W 072°55'9 8.0
2015-Mar-21 15:29N 41°07' W 073°04'6 7.0
2015-Mar-21 14:33N 41°04' W 073°12'7 7.2
2015-Mar-21 13:33N 41°01' W 073°21'7 7.4
2015-Mar-21 12:33N 40°58' W 073°30'8 8.2
2015-Mar-21 11:33N 40°55' W 073°39'16 7.7
2015-Mar-21 09:27N 40°46' W 073°57'6 6.8
2015-Mar-21 08:33N 40°41' W 074°02'3 3.0
2015-Mar-21 07:33N 40°39' W 074°05'1 1.0
2015-Mar-21 06:33N 40°40' W 074°05'0 0.0
2015-Mar-21 05:28N 40°40' W 074°05'0 0.0
2015-Mar-21 04:28N 40°40' W 074°05'0 0.0
2015-Mar-21 03:29N 40°40' W 074°05'0 0.0
2015-Mar-21 02:12N 40°40' W 074°05'0 0.0
2015-Mar-21 00:31N 40°40' W 074°05'0 0.0
2015-Mar-20 23:32N 40°40' W 074°05'0 0.0
2015-Mar-20 22:32N 40°40' W 074°05'0 0.0
2015-Mar-20 21:33N 40°40' W 074°05'0 0.0
2015-Mar-20 20:33N 40°40' W 074°05'0 0.0
2015-Mar-20 19:33N 40°40' W 074°05'4 3.8
2015-Mar-20 18:33N 40°40' W 074°00'0 0.1
2015-Mar-20 17:32N 40°40' W 074°00'1 0.8
2015-Mar-20 16:33N 40°40' W 074°01'2 2.4
2015-Mar-20 15:33N 40°39' W 074°04'2 1.5
2015-Mar-20 14:30N 40°40' W 074°03'0 0.1
2015-Mar-20 13:30N 40°40' W 074°02'0 0.0
2015-Mar-20 12:31N 40°40' W 074°02'0 0.0
2015-Mar-20 11:32N 40°40' W 074°02'0 0.1
2015-Mar-20 10:32N 40°40' W 074°03'0 0.0
2015-Mar-20 09:33N 40°40' W 074°03'0 0.0
2015-Mar-20 08:34N 40°40' W 074°03'0 0.0
2015-Mar-20 07:31N 40°40' W 074°03'0 0.0
2015-Mar-20 06:29N 40°40' W 074°03'0 0.0
2015-Mar-20 05:29N 40°40' W 074°03'0 0.0
2015-Mar-20 04:33N 40°40' W 074°02'0 0.0
2015-Mar-20 03:31N 40°40' W 074°02'0 0.1
2015-Mar-20 02:31N 40°40' W 074°02'0 0.1
2015-Mar-20 01:32N 40°40' W 074°02'2 1.7
2015-Mar-20 00:33N 40°40' W 074°00'0 0.0
2015-Mar-19 23:33N 40°40' W 074°00'0 0.0
2015-Mar-19 22:28N 40°40' W 074°00'2 1.7
2015-Mar-19 21:28N 40°40' W 074°02'0 0.1
2015-Mar-19 20:28N 40°40' W 074°02'0 0.0
2015-Mar-19 19:29N 40°40' W 074°02'0 0.0
2015-Mar-19 18:30N 40°40' W 074°02'0 0.0
2015-Mar-19 17:30N 40°40' W 074°02'0 0.0
2015-Mar-19 16:31N 40°40' W 074°02'0 0.0
2015-Mar-19 15:28N 40°40' W 074°02'0 0.0
2015-Mar-19 14:29N 40°40' W 074°02'0 0.0
2015-Mar-19 13:33N 40°40' W 074°02'0 0.1
2015-Mar-19 12:33N 40°40' W 074°02'0 0.0
2015-Mar-19 11:31N 40°40' W 074°02'0 0.0
2015-Mar-19 10:32N 40°40' W 074°02'0 0.0
2015-Mar-19 09:32N 40°40' W 074°02'0 0.0
2015-Mar-19 08:33N 40°40' W 074°02'0 0.0
2015-Mar-19 07:33N 40°40' W 074°02'0 0.0
2015-Mar-19 06:28N 40°40' W 074°02'0 0.0
2015-Mar-19 05:32N 40°40' W 074°02'0 0.0
2015-Mar-19 04:29N 40°40' W 074°02'0 0.0
2015-Mar-19 03:30N 40°40' W 074°02'0 0.0
2015-Mar-19 02:31N 40°40' W 074°02'0 0.0
2015-Mar-19 01:31N 40°40' W 074°02'0 0.0
2015-Mar-19 00:32N 40°40' W 074°02'0 0.0
2015-Mar-18 23:33N 40°40' W 074°02'4 4.1
2015-Mar-18 22:33N 40°43' W 073°59'5 4.9
2015-Mar-18 21:33N 40°47' W 073°55'27 6.7
2015-Mar-18 17:33N 41°00' W 073°24'8 8.4
2015-Mar-18 16:33N 41°03' W 073°14'10 8.5
2015-Mar-18 15:25N 41°08' W 073°03'7 8.3
2015-Mar-18 14:33N 41°13' W 072°56'5 0.4
2015-Mar-18 01:30N 41°18' W 072°54'4 4.2
2015-Mar-18 00:33N 41°14' W 072°56'0 0.4
2015-Mar-17 23:26N 41°14' W 072°57'0 0.0
2015-Mar-17 16:16N 41°14' W 072°57'6 8.8
2015-Mar-17 15:32N 41°09' W 073°03'1010.0
2015-Mar-17 14:33N 41°04' W 073°14'10 9.8
2015-Mar-17 13:33N 40°60' W 073°26'10 9.6
2015-Mar-17 12:33N 40°56' W 073°37'18 8.7
2015-Mar-17 10:29N 40°46' W 073°57'9 9.4
2015-Mar-17 09:33N 40°39' W 074°04'1 0.6
2015-Mar-17 08:31N 40°39' W 074°05'0 0.0
2015-Mar-17 07:32N 40°39' W 074°05'0 0.0
2015-Mar-17 06:32N 40°39' W 074°05'1 0.7
2015-Mar-17 05:07N 40°40' W 074°05'0 0.0
2015-Mar-17 04:31N 40°40' W 074°05'0 0.0
2015-Mar-17 03:32N 40°40' W 074°05'0 0.0
2015-Mar-17 02:32N 40°40' W 074°05'0 0.0
2015-Mar-17 00:33N 40°40' W 074°05'4 3.8
2015-Mar-16 23:33N 40°40' W 074°00'0 0.0
2015-Mar-16 22:29N 40°40' W 074°00'3 3.3
2015-Mar-16 21:33N 40°40' W 074°04'  
Track history (hours):
 
Tides and Currents Weather Stations Pressure Air Temp Water Temp Dewpoint Dewpoint Depression Visibility Wind Speed Wind Dir Waves Ship Positions

Susquehanna

Owner: Vane Line Bunkering, Inc., Baltimore, MD. More information available from US FCC via Universal Licensing System and Coast Guard Vessel Documentation Center.

Last reported at 2015-Mar-26 20:13 UTC. Time now 2015-Mar-27 03:42 UTC.
Position N 40°30' W 074°15'.

Length 28 m; draft 4.2 m.

Type: Tug. MMSI: 367318750.

Date/timePositionNaut miles runAvg speedWind from/ knotsBaromVisibWave heightAir tempDewpointWater temp
2015-Mar-26 20:13N 40°30' W 074°15'10 2.2
2015-Mar-26 15:32N 40°39' W 074°08'7 7.5
2015-Mar-26 14:33N 40°42' W 073°60'11 7.6
2015-Mar-26 13:06N 40°48' W 073°47'5 8.8
2015-Mar-26 12:29N 40°53' W 073°44'10 8.2
2015-Mar-26 11:16N 40°57' W 073°32'6 8.0
2015-Mar-26 10:33N 41°00' W 073°25'8 8.3
2015-Mar-26 09:33N 41°03' W 073°15'9 8.6
2015-Mar-26 08:33N 41°06' W 073°04'9 8.8
2015-Mar-26 07:33N 41°12' W 072°55'6 5.9
2015-Mar-26 06:30N 41°18' W 072°54'0 0.0
2015-Mar-26 00:08N 41°18' W 072°54'0 0.0
2015-Mar-25 20:33N 41°18' W 072°55'7 7.1
2015-Mar-25 19:33N 41°11' W 072°57'8 7.6
2015-Mar-25 18:33N 41°06' W 073°05'7 7.2
2015-Mar-25 17:33N 41°03' W 073°13'7 7.5
2015-Mar-25 16:33N 41°01' W 073°23'8 8.0
2015-Mar-25 15:33N 40°57' W 073°32'8 8.4
2015-Mar-25 14:33N 40°53' W 073°42'8 7.8
2015-Mar-25 13:33N 40°48' W 073°50'7 7.3
2015-Mar-25 12:33N 40°45' W 073°58'7 6.7
2015-Mar-25 11:33N 40°39' W 074°03'1 1.3
2015-Mar-25 10:33N 40°39' W 074°05'1 0.8
2015-Mar-25 09:25N 40°40' W 074°05'0 0.0
2015-Mar-25 08:08N 40°40' W 074°05'0 0.0
2015-Mar-25 05:28N 40°40' W 074°05'0 0.0
2015-Mar-25 02:24N 40°40' W 074°05'0 0.0
2015-Mar-25 01:30N 40°40' W 074°05'0 0.0
2015-Mar-25 00:25N 40°40' W 074°05'0 0.0
2015-Mar-24 23:32N 40°40' W 074°05'0 0.0
2015-Mar-24 22:32N 40°40' W 074°05'0 0.0
2015-Mar-24 21:33N 40°40' W 074°05'0 0.0
2015-Mar-24 20:33N 40°40' W 074°05'0 0.0
2015-Mar-24 18:29N 40°40' W 074°05'0 0.0
2015-Mar-24 17:29N 40°40' W 074°05'0 0.0
2015-Mar-24 16:24N 40°40' W 074°05'0 0.0
2015-Mar-24 15:31N 40°40' W 074°05'4 3.9
2015-Mar-24 14:33N 40°40' W 074°00'0 0.0
2015-Mar-24 13:28N 40°40' W 074°00'3 2.9
2015-Mar-24 12:33N 40°39' W 074°03'0 0.5
2015-Mar-24 11:33N 40°39' W 074°03'1 0.9
2015-Mar-24 10:28N 40°40' W 074°02'0 0.0
2015-Mar-24 09:31N 40°40' W 074°02'0 0.0
2015-Mar-24 08:26N 40°40' W 074°02'0 0.0
2015-Mar-24 07:32N 40°40' W 074°02'0 0.0
2015-Mar-24 06:33N 40°40' W 074°02'0 0.0
2015-Mar-24 05:28N 40°40' W 074°02'0 0.1
2015-Mar-24 04:28N 40°40' W 074°02'0 0.0
2015-Mar-24 03:29N 40°40' W 074°02'0 0.0
2015-Mar-24 02:30N 40°40' W 074°02'0 0.0
2015-Mar-24 01:30N 40°40' W 074°02'0 0.0
2015-Mar-24 00:31N 40°40' W 074°02'0 0.0
2015-Mar-23 23:32N 40°40' W 074°02'0 0.0
2015-Mar-23 22:32N 40°40' W 074°02'0 0.0
2015-Mar-23 21:33N 40°40' W 074°02'0 0.0
2015-Mar-23 20:28N 40°40' W 074°02'0 0.0
2015-Mar-23 19:31N 40°40' W 074°02'0 0.0
2015-Mar-23 18:29N 40°40' W 074°02'0 0.0
2015-Mar-23 17:29N 40°40' W 074°02'0 0.0
2015-Mar-23 16:30N 40°40' W 074°02'0 0.0
2015-Mar-23 15:28N 40°40' W 074°02'0 0.0
2015-Mar-23 14:31N 40°40' W 074°02'0 0.0
2015-Mar-23 13:32N 40°40' W 074°02'0 0.0
2015-Mar-23 12:33N 40°40' W 074°02'0 0.0
2015-Mar-23 11:33N 40°40' W 074°02'0 0.0
2015-Mar-23 10:28N 40°40' W 074°02'0 0.0
2015-Mar-23 09:31N 40°40' W 074°02'0 0.0
2015-Mar-23 08:29N 40°40' W 074°02'0 0.0
2015-Mar-23 07:30N 40°40' W 074°02'0 0.0
2015-Mar-23 06:30N 40°40' W 074°02'0 0.0
2015-Mar-23 05:31N 40°40' W 074°02'0 0.0
2015-Mar-23 04:32N 40°40' W 074°02'0 0.0
2015-Mar-23 03:32N 40°40' W 074°02'0 0.0
2015-Mar-23 02:33N 40°40' W 074°02'0 0.0
2015-Mar-23 01:28N 40°40' W 074°02'0 0.0
2015-Mar-23 00:25N 40°40' W 074°02'0 0.0
2015-Mar-22 23:29N 40°40' W 074°02'0 0.0
2015-Mar-22 22:30N 40°40' W 074°02'0 0.0
2015-Mar-22 21:30N 40°40' W 074°02'0 0.0
2015-Mar-22 20:31N 40°40' W 074°02'0 0.0
2015-Mar-22 19:31N 40°40' W 074°02'0 0.0
2015-Mar-22 18:32N 40°40' W 074°02'0 0.0
2015-Mar-22 17:33N 40°40' W 074°02'0 0.0
2015-Mar-22 16:33N 40°40' W 074°02'0 0.0
2015-Mar-22 15:22N 40°40' W 074°02'0 0.0
2015-Mar-22 14:33N 40°40' W 074°02'0 0.0
2015-Mar-22 13:33N 40°40' W 074°02'3 2.6
2015-Mar-22 12:33N 40°42' W 074°00'6 5.6
2015-Mar-22 11:33N 40°47' W 073°56'28 7.1
2015-Mar-22 07:33N 41°01' W 073°24'9 9.1
2015-Mar-22 06:33N 41°04' W 073°12'9 9.5
2015-Mar-22 05:33N 41°08' W 073°01'7 7.3
2015-Mar-22 04:33N 41°13' W 072°55'4 0.4
2015-Mar-21 17:19N 41°18' W 072°55'6 7.7
2015-Mar-21 16:33N 41°12' W 072°55'9 8.0
2015-Mar-21 15:29N 41°07' W 073°04'6 7.0
2015-Mar-21 14:33N 41°04' W 073°12'7 7.2
2015-Mar-21 13:33N 41°01' W 073°21'7 7.4
2015-Mar-21 12:33N 40°58' W 073°30'8 8.2
2015-Mar-21 11:33N 40°55' W 073°39'16 7.7
2015-Mar-21 09:27N 40°46' W 073°57'6 6.8
2015-Mar-21 08:33N 40°41' W 074°02'3 3.0
2015-Mar-21 07:33N 40°39' W 074°05'1 1.0
2015-Mar-21 06:33N 40°40' W 074°05'0 0.0
2015-Mar-21 05:28N 40°40' W 074°05'0 0.0
2015-Mar-21 04:28N 40°40' W 074°05'0 0.0
2015-Mar-21 03:29N 40°40' W 074°05'0 0.0
2015-Mar-21 02:12N 40°40' W 074°05'0 0.0
2015-Mar-21 00:31N 40°40' W 074°05'0 0.0
2015-Mar-20 23:32N 40°40' W 074°05'0 0.0
2015-Mar-20 22:32N 40°40' W 074°05'0 0.0
2015-Mar-20 21:33N 40°40' W 074°05'0 0.0
2015-Mar-20 20:33N 40°40' W 074°05'0 0.0
2015-Mar-20 19:33N 40°40' W 074°05'4 3.8
2015-Mar-20 18:33N 40°40' W 074°00'0 0.1
2015-Mar-20 17:32N 40°40' W 074°00'1 0.8
2015-Mar-20 16:33N 40°40' W 074°01'2 2.4
2015-Mar-20 15:33N 40°39' W 074°04'2 1.5
2015-Mar-20 14:30N 40°40' W 074°03'0 0.1
2015-Mar-20 13:30N 40°40' W 074°02'0 0.0
2015-Mar-20 12:31N 40°40' W 074°02'0 0.0
2015-Mar-20 11:32N 40°40' W 074°02'0 0.1
2015-Mar-20 10:32N 40°40' W 074°03'0 0.0
2015-Mar-20 09:33N 40°40' W 074°03'0 0.0
2015-Mar-20 08:34N 40°40' W 074°03'0 0.0
2015-Mar-20 07:31N 40°40' W 074°03'0 0.0
2015-Mar-20 06:29N 40°40' W 074°03'0 0.0
2015-Mar-20 05:29N 40°40' W 074°03'0 0.0
2015-Mar-20 04:33N 40°40' W 074°02'0 0.0
2015-Mar-20 03:31N 40°40' W 074°02'0 0.1
2015-Mar-20 02:31N 40°40' W 074°02'0 0.1
2015-Mar-20 01:32N 40°40' W 074°02'2 1.7
2015-Mar-20 00:33N 40°40' W 074°00'0 0.0
2015-Mar-19 23:33N 40°40' W 074°00'0 0.0
2015-Mar-19 22:28N 40°40' W 074°00'2 1.7
2015-Mar-19 21:28N 40°40' W 074°02'0 0.1
2015-Mar-19 20:28N 40°40' W 074°02'0 0.0
2015-Mar-19 19:29N 40°40' W 074°02'0 0.0
2015-Mar-19 18:30N 40°40' W 074°02'0 0.0
2015-Mar-19 17:30N 40°40' W 074°02'0 0.0
2015-Mar-19 16:31N 40°40' W 074°02'0 0.0
2015-Mar-19 15:28N 40°40' W 074°02'0 0.0
2015-Mar-19 14:29N 40°40' W 074°02'0 0.0
2015-Mar-19 13:33N 40°40' W 074°02'0 0.1
2015-Mar-19 12:33N 40°40' W 074°02'0 0.0
2015-Mar-19 11:31N 40°40' W 074°02'0 0.0
2015-Mar-19 10:32N 40°40' W 074°02'0 0.0
2015-Mar-19 09:32N 40°40' W 074°02'0 0.0
2015-Mar-19 08:33N 40°40' W 074°02'0 0.0
2015-Mar-19 07:33N 40°40' W 074°02'0 0.0
2015-Mar-19 06:28N 40°40' W 074°02'0 0.0
2015-Mar-19 05:32N 40°40' W 074°02'0 0.0
2015-Mar-19 04:29N 40°40' W 074°02'0 0.0
2015-Mar-19 03:30N 40°40' W 074°02'0 0.0
2015-Mar-19 02:31N 40°40' W 074°02'0 0.0
2015-Mar-19 01:31N 40°40' W 074°02'0 0.0
2015-Mar-19 00:32N 40°40' W 074°02'0 0.0
2015-Mar-18 23:33N 40°40' W 074°02'4 4.1
2015-Mar-18 22:33N 40°43' W 073°59'5 4.9
2015-Mar-18 21:33N 40°47' W 073°55'27 6.7
2015-Mar-18 17:33N 41°00' W 073°24'8 8.4
2015-Mar-18 16:33N 41°03' W 073°14'10 8.5
2015-Mar-18 15:25N 41°08' W 073°03'7 8.3
2015-Mar-18 14:33N 41°13' W 072°56'5 0.4
2015-Mar-18 01:30N 41°18' W 072°54'4 4.2
2015-Mar-18 00:33N 41°14' W 072°56'0 0.4
2015-Mar-17 23:26N 41°14' W 072°57'0 0.0
2015-Mar-17 16:16N 41°14' W 072°57'6 8.8
2015-Mar-17 15:32N 41°09' W 073°03'1010.0
2015-Mar-17 14:33N 41°04' W 073°14'10 9.8
2015-Mar-17 13:33N 40°60' W 073°26'10 9.6
2015-Mar-17 12:33N 40°56' W 073°37'18 8.7
2015-Mar-17 10:29N 40°46' W 073°57'9 9.4
2015-Mar-17 09:33N 40°39' W 074°04'1 0.6
2015-Mar-17 08:31N 40°39' W 074°05'0 0.0
2015-Mar-17 07:32N 40°39' W 074°05'0 0.0
2015-Mar-17 06:32N 40°39' W 074°05'1 0.7
2015-Mar-17 05:07N 40°40' W 074°05'0 0.0
2015-Mar-17 04:31N 40°40' W 074°05'0 0.0
2015-Mar-17 03:32N 40°40' W 074°05'0 0.0
2015-Mar-17 02:32N 40°40' W 074°05'0 0.0
2015-Mar-17 00:33N 40°40' W 074°05'4 3.8
2015-Mar-16 23:33N 40°40' W 074°00'0 0.0
2015-Mar-16 22:29N 40°40' W 074°00'3 3.3
2015-Mar-16 21:33N 40°40' W 074°04'  

Dump ship's entire track history